Time;durP1;ratioP1;P1;durP2;ratioP2;P2;SDS_P1;SDS_P2;PMS_P1;PMS_P2;Temp;Humidity;BMP_temperature;BMP_pressure;BME280_temperature;BME280_humidity;BME280_pressure;Samples;Min_cycle;Max_cycle;Signal;HPM_P1;HPM_P2
2022/07/11 00:00:13;;;;;;;1.93;1.73;;;;;;;14.17;99.18;100990.06;5074331;28;20224;-76
2022/07/11 00:02:39;;;;;;;2.80;2.00;;;;;;;14.09;99.51;100995.50;5065574;28;20217;-76
2022/07/11 00:05:07;;;;;;;2.30;2.13;;;;;;;14.10;99.35;100991.97;5065504;28;20630;-75
2022/07/11 00:07:34;;;;;;;3.00;2.10;;;;;;;14.19;99.33;101000.50;5073867;28;20227;-76
2022/07/11 00:10:01;;;;;;;2.33;2.23;;;;;;;14.11;99.04;101008.56;5071913;28;20200;-76
2022/07/11 00:12:28;;;;;;;3.13;2.93;;;;;;;14.22;98.78;101010.94;5065770;28;20206;-76
2022/07/11 00:14:54;;;;;;;2.70;2.60;;;;;;;14.31;98.39;101013.34;5074431;28;20268;-77
2022/07/11 00:17:21;;;;;;;2.47;2.33;;;;;;;14.17;98.53;101012.81;5074083;28;20204;-77
2022/07/11 00:19:48;;;;;;;3.27;2.80;;;;;;;14.19;98.86;101008.38;5063122;28;20259;-76
2022/07/11 00:22:14;;;;;;;4.53;2.83;;;;;;;14.22;98.93;101014.41;5069324;28;20299;-77
2022/07/11 00:24:41;;;;;;;3.23;2.93;;;;;;;14.28;98.85;101011.63;5073717;28;20204;-76
2022/07/11 00:27:09;;;;;;;3.00;2.80;;;;;;;14.12;99.32;101010.31;5073506;28;21049;-76
2022/07/11 00:29:35;;;;;;;2.63;2.53;;;;;;;14.06;99.79;100997.34;5073764;28;20211;-76
2022/07/11 00:32:02;;;;;;;3.00;2.80;;;;;;;14.14;99.67;100992.75;5073017;28;20568;-76
2022/07/11 00:34:28;;;;;;;2.90;2.70;;;;;;;14.07;99.44;100991.16;5073510;28;20261;-76
2022/07/11 00:36:55;;;;;;;2.63;2.43;;;;;;;14.11;99.57;100992.81;5072913;28;20209;-75
2022/07/11 00:39:21;;;;;;;2.50;2.30;;;;;;;14.16;99.18;100998.81;5073624;28;20228;-76
2022/07/11 00:41:48;;;;;;;2.70;2.50;;;;;;;14.10;99.55;100996.34;5072707;28;20241;-76
2022/07/11 00:44:15;;;;;;;2.70;2.50;;;;;;;14.10;99.64;100998.97;5073396;28;20682;-76
2022/07/11 00:46:42;;;;;;;3.67;2.40;;;;;;;14.03;99.17;101002.66;5073090;28;20208;-76
2022/07/11 00:49:09;;;;;;;2.77;2.57;;;;;;;14.02;99.34;101000.94;5066520;28;20281;-76
2022/07/11 00:51:36;;;;;;;3.70;3.37;;;;;;;13.98;99.58;101000.13;5064428;28;20203;-76
2022/07/11 00:54:03;;;;;;;2.73;2.20;;;;;;;14.02;99.05;100996.53;5073378;28;20212;-76
2022/07/11 00:56:31;;;;;;;2.77;2.57;;;;;;;14.00;99.12;101000.09;5072963;28;20342;-76
2022/07/11 00:58:59;;;;;;;2.63;2.37;;;;;;;14.01;99.03;101013.19;5073091;28;20224;-76
2022/07/11 01:01:27;;;;;;;2.40;2.20;;;;;;;13.94;98.76;101016.00;5072868;28;20222;-76
2022/07/11 01:03:54;;;;;;;2.00;1.90;;;;;;;14.01;98.32;101018.44;5072783;28;20692;-76
2022/07/11 01:06:20;;;;;;;2.43;2.23;;;;;;;13.94;98.67;101016.88;5072837;28;20280;-76
2022/07/11 01:08:47;;;;;;;2.00;1.90;;;;;;;13.90;98.62;101016.06;5072666;28;20243;-76
2022/07/11 01:11:15;;;;;;;2.03;1.93;;;;;;;13.86;99.24;101010.94;5072755;28;20670;-76
2022/07/11 01:13:42;;;;;;;2.23;2.03;;;;;;;13.90;99.23;101008.19;5072894;28;20294;-76
2022/07/11 01:16:13;;;;;;;2.00;1.90;;;;;;;13.84;98.63;101003.09;5072461;28;20630;-76
2022/07/11 01:18:42;;;;;;;2.17;1.97;;;;;;;13.85;99.15;101003.94;5065871;28;20331;-76
2022/07/11 01:21:21;;;;;;;1.80;1.70;;;;;;;13.94;98.33;101010.75;5064091;28;20720;-76
2022/07/11 01:23:50;;;;;;;2.17;1.80;;;;;;;13.98;97.72;101021.13;5072489;28;20207;-76
2022/07/11 01:26:18;;;;;;;1.47;1.37;;;;;;;13.92;97.49;101029.16;5072189;28;20692;-76
2022/07/11 01:28:45;;;;;;;1.97;1.87;;;;;;;13.97;97.51;101029.03;5072261;28;20224;-76
2022/07/11 01:31:11;;;;;;;1.50;1.40;;;;;;;13.89;97.06;101043.22;5071704;28;20243;-76
2022/07/11 01:33:38;;;;;;;1.50;1.40;;;;;;;13.86;97.24;101026.69;5072124;28;20207;-76
2022/07/11 01:36:05;;;;;;;1.60;1.50;;;;;;;13.86;97.23;101030.16;5072044;28;20760;-76
2022/07/11 01:38:32;;;;;;;1.50;1.33;;;;;;;13.84;97.16;101028.47;5072059;28;20282;-76
2022/07/11 01:40:59;;;;;;;2.07;1.93;;;;;;;13.92;97.11;101025.69;5072210;28;20227;-76
2022/07/11 01:43:26;;;;;;;1.50;1.30;;;;;;;13.98;96.46;101036.88;5072428;28;20216;-76
2022/07/11 01:45:53;;;;;;;2.00;1.33;;;;;;;14.04;96.01;101052.50;5071923;28;20677;-76
2022/07/11 01:48:20;;;;;;;1.37;1.30;;;;;;;13.99;95.72;101056.97;5065974;28;20278;-76
2022/07/11 01:50:46;;;;;;;1.20;1.20;;;;;;;13.93;95.90;101059.75;5063540;28;20665;-76
2022/07/11 01:53:13;;;;;;;1.50;1.40;;;;;;;13.92;96.04;101055.41;5071668;28;20209;-76
2022/07/11 01:55:39;;;;;;;1.30;1.20;;;;;;;13.92;96.23;101051.94;5071719;28;20281;-76
2022/07/11 01:58:07;;;;;;;1.13;1.10;;;;;;;13.98;96.20;101046.53;5072140;28;20277;-76
2022/07/11 02:00:34;;;;;;;1.47;1.10;;;;;;;14.13;95.60;101051.41;5071981;28;20273;-76
2022/07/11 02:03:00;;;;;;;1.53;1.33;;;;;;;14.17;95.13;101081.06;5071906;28;20626;-76
2022/07/11 02:05:26;;;;;;;1.30;1.20;;;;;;;14.16;95.07;101079.38;5071757;28;20214;-76
2022/07/11 02:08:14;;;;;;;1.37;1.27;;;;;;;14.13;95.50;101071.53;5071550;28;20250;-76
2022/07/11 02:10:45;;;;;;;1.60;1.30;;;;;;;14.14;95.18;101074.13;5072100;28;20208;-76
2022/07/11 02:13:14;;;;;;;2.00;1.20;;;;;;;14.26;94.99;101079.09;5072009;28;20258;-76
2022/07/11 02:15:42;;;;;;;1.40;1.40;;;;;;;14.20;94.62;101081.00;5071601;28;20260;-76
2022/07/11 02:18:08;;;;;;;1.40;1.03;;;;;;;14.25;94.51;101090.50;5066986;28;20231;-76
2022/07/11 02:20:35;;;;;;;1.60;1.50;;;;;;;14.18;95.22;101074.94;5061491;28;20220;-76
2022/07/11 02:23:03;;;;;;;1.67;1.57;;;;;;;14.26;94.90;101068.59;5071665;28;20207;-76
2022/07/11 02:25:30;;;;;;;1.53;1.30;;;;;;;14.37;94.50;101073.59;5071357;28;20207;-76
2022/07/11 02:27:57;;;;;;;1.20;1.20;;;;;;;14.44;94.15;101083.03;5071575;28;20232;-77
2022/07/11 02:30:25;;;;;;;1.53;1.30;;;;;;;14.40;93.82;101106.78;5071807;28;20211;-76
2022/07/11 02:32:52;;;;;;;2.10;1.50;;;;;;;14.36;94.04;101105.16;5071306;28;20205;-76
2022/07/11 02:35:19;;;;;;;2.03;1.87;;;;;;;14.13;95.26;101075.03;5071570;28;20270;-76
2022/07/11 02:37:45;;;;;;;1.90;1.80;;;;;;;14.19;95.65;101053.91;5071368;28;20227;-76
2022/07/11 02:40:12;;;;;;;3.00;1.93;;;;;;;14.04;96.01;101046.38;5071627;28;20232;-76
2022/07/11 02:42:39;;;;;;;2.03;1.93;;;;;;;13.93;96.72;101038.75;5071556;28;20208;-76
2022/07/11 02:45:07;;;;;;;2.20;2.10;;;;;;;13.97;97.33;101019.41;5070930;28;20211;-76
2022/07/11 02:47:36;;;;;;;2.00;1.80;;;;;;;13.98;97.65;101015.03;5071286;28;20669;-76
2022/07/11 02:50:03;;;;;;;2.60;2.40;;;;;;;13.78;98.24;100997.13;5053549;28;20287;-76
2022/07/11 02:52:29;;;;;;;3.23;2.53;;;;;;;13.78;98.89;100984.00;5068913;28;20207;-76
2022/07/11 02:54:56;;;;;;;3.40;3.10;;;;;;;13.86;98.77;100989.94;5071229;28;20211;-76
2022/07/11 02:57:22;;;;;;;3.47;3.03;;;;;;;13.81;98.87;100987.41;5071301;28;20212;-76
2022/07/11 02:59:49;;;;;;;3.23;3.00;;;;;;;13.87;99.09;100989.03;5071217;28;20261;-76
2022/07/11 03:02:15;;;;;;;3.03;2.83;;;;;;;13.96;99.35;100987.97;5071174;28;20626;-76
2022/07/11 03:04:43;;;;;;;2.93;2.73;;;;;;;13.99;98.80;100998.38;5073728;28;20798;-75
2022/07/11 03:07:09;;;;;;;3.70;3.40;;;;;;;13.91;98.59;101009.03;5074686;28;20666;-76
2022/07/11 03:09:36;;;;;;;3.07;2.87;;;;;;;13.89;99.11;101005.59;5075200;28;20214;-76
2022/07/11 03:12:02;;;;;;;3.63;3.33;;;;;;;13.88;98.97;101002.13;5075059;28;20211;-76
2022/07/11 03:14:29;;;;;;;3.40;3.20;;;;;;;13.95;99.19;100994.94;5075015;28;20591;-76
2022/07/11 03:16:55;;;;;;;3.80;3.07;;;;;;;14.08;98.33;101006.88;5074922;28;20211;-76
2022/07/11 03:19:21;;;;;;;4.30;3.70;;;;;;;13.99;98.18;101020.22;5068357;28;20318;-76
2022/07/11 03:21:49;;;;;;;5.23;4.37;;;;;;;13.93;98.80;101020.38;5066828;28;20223;-76
2022/07/11 03:24:16;;;;;;;3.97;3.67;;;;;;;14.00;99.01;101018.47;5074665;28;20234;-76
2022/07/11 03:26:42;;;;;;;4.63;4.30;;;;;;;14.06;98.32;101019.19;5074463;28;20256;-77
2022/07/11 03:29:08;;;;;;;3.90;3.60;;;;;;;13.99;98.32;101020.22;5074907;28;20230;-76
2022/07/11 03:31:35;;;;;;;4.00;3.70;;;;;;;14.01;98.34;101020.19;5074532;28;20208;-76
2022/07/11 03:34:02;;;;;;;4.37;4.03;;;;;;;14.19;98.03;101029.38;5074595;28;20577;-76
2022/07/11 03:36:28;;;;;;;4.23;3.83;;;;;;;14.27;97.20;101044.06;5074531;28;20265;-76
2022/07/11 03:38:56;;;;;;;3.97;3.07;;;;;;;14.18;96.60;101057.41;5074195;28;20250;-76
2022/07/11 03:41:22;;;;;;;4.00;3.60;;;;;;;14.12;97.26;101054.94;5074422;28;20227;-76
2022/07/11 03:43:49;;;;;;;4.63;4.23;;;;;;;14.09;97.16;101050.63;5074473;28;20677;-76
2022/07/11 03:46:15;;;;;;;4.20;3.47;;;;;;;14.16;97.32;101047.84;5074144;28;20234;-76
2022/07/11 03:48:43;;;;;;;4.53;3.67;;;;;;;14.22;96.99;101048.56;5067877;28;20277;-76
2022/07/11 03:51:10;;;;;;;5.43;3.80;;;;;;;14.14;97.28;101055.75;5066166;28;20265;-76
2022/07/11 03:53:36;;;;;;;3.77;3.47;;;;;;;14.23;97.36;101044.16;5073933;28;20602;-76
2022/07/11 03:56:05;;;;;;;5.07;4.60;;;;;;;14.18;96.46;101052.16;5073959;28;20726;-76
2022/07/11 03:58:32;;;;;;;3.83;3.57;;;;;;;14.18;96.84;101053.94;5074259;28;20250;-76
2022/07/11 04:00:58;;;;;;;4.90;4.50;;;;;;;14.17;96.88;101054.81;5073969;28;20228;-76
2022/07/11 04:03:25;;;;;;;4.83;4.33;;;;;;;14.21;96.88;101054.72;5074209;28;20284;-76
2022/07/11 04:05:52;;;;;;;4.13;3.77;;;;;;;14.19;96.10;101059.16;5073841;28;20216;-76
2022/07/11 04:08:18;;;;;;;7.33;3.80;;;;;;;14.24;96.58;101056.41;5073859;28;20288;-76
2022/07/11 04:10:45;;;;;;;4.13;3.77;;;;;;;14.25;96.00;101060.75;5074207;28;20206;-76
2022/07/11 04:13:13;;;;;;;4.50;3.87;;;;;;;14.20;96.71;101063.50;5074089;28;20207;-76
2022/07/11 04:15:39;;;;;;;4.10;3.67;;;;;;;14.18;96.75;101056.56;5072114;28;20201;-77
2022/07/11 04:18:06;;;;;;;4.43;4.03;;;;;;;14.13;97.08;101040.91;5069583;28;20236;-76
2022/07/11 04:20:32;;;;;;;4.47;3.97;;;;;;;14.21;97.23;101040.72;5058926;28;20220;-76
2022/07/11 04:22:59;;;;;;;4.50;4.10;;;;;;;14.24;97.14;101043.28;5053263;28;20263;-76
2022/07/11 04:25:25;;;;;;;6.20;4.93;;;;;;;14.16;97.81;101034.72;5053240;28;20206;-76
2022/07/11 04:27:52;;;;;;;4.90;4.37;;;;;;;14.21;97.83;101025.84;5053183;28;20266;-76
2022/07/11 04:30:19;;;;;;;4.50;4.20;;;;;;;14.27;97.86;101028.31;5053222;28;20201;-76
2022/07/11 04:32:46;;;;;;;4.00;3.80;;;;;;;14.24;97.53;101019.66;5052826;28;20613;-76
2022/07/11 04:35:12;;;;;;;4.33;3.93;;;;;;;14.22;97.12;101032.81;5053009;28;20271;-76
2022/07/11 04:37:39;;;;;;;5.43;5.03;;;;;;;14.17;98.24;101015.44;5053096;28;20229;-76
2022/07/11 04:40:07;;;;;;;6.07;5.43;;;;;;;14.15;99.17;101002.34;5053419;28;20251;-76
2022/07/11 04:42:33;;;;;;;5.33;4.83;;;;;;;14.05;99.75;101001.72;5053493;28;20205;-76
2022/07/11 04:44:59;;;;;;;7.07;5.60;;;;;;;14.02;100.00;100982.56;5052452;28;20205;-76
2022/07/11 04:47:27;;;;;;;5.53;5.13;;;;;;;14.12;100.00;100972.69;5050166;28;20220;-76
2022/07/11 04:49:54;;;;;;;5.83;5.37;;;;;;;14.12;100.00;100984.06;5057896;28;20199;-76
2022/07/11 04:52:20;;;;;;;5.37;5.00;;;;;;;14.02;100.00;100967.66;5055211;28;20232;-76
2022/07/11 04:54:46;;;;;;;5.87;5.37;;;;;;;14.04;100.00;100976.34;5052517;28;20197;-76
2022/07/11 04:57:13;;;;;;;6.40;5.70;;;;;;;13.93;100.00;100965.25;5052688;28;20197;-76
2022/07/11 04:59:39;;;;;;;5.83;5.30;;;;;;;13.93;100.00;100956.53;5052735;28;20197;-76
2022/07/11 05:02:06;;;;;;;7.13;6.47;;;;;;;14.02;100.00;100956.31;5049586;28;20219;-76
2022/07/11 05:04:34;;;;;;;6.13;5.53;;;;;;;14.03;100.00;100972.03;5052661;28;20252;-77
2022/07/11 05:07:00;;;;;;;5.63;5.20;;;;;;;14.01;100.00;100976.44;5052404;28;20251;-76
2022/07/11 05:09:26;;;;;;;7.03;5.97;;;;;;;14.00;100.00;100977.34;5049875;28;20224;-76
2022/07/11 05:11:53;;;;;;;6.43;5.83;;;;;;;13.97;100.00;100972.16;5052632;28;20249;-76
2022/07/11 05:14:19;;;;;;;6.30;5.77;;;;;;;14.08;100.00;100978.00;5052508;28;20201;-76
2022/07/11 05:16:46;;;;;;;5.83;5.40;;;;;;;14.12;100.00;100988.44;5049714;28;20194;-76
2022/07/11 05:19:12;;;;;;;6.30;5.00;;;;;;;14.27;100.00;100986.31;5054744;28;20217;-76
2022/07/11 05:21:40;;;;;;;6.97;5.50;;;;;;;14.39;100.00;100995.63;5057305;28;20628;-76
2022/07/11 05:24:07;;;;;;;8.00;6.00;;;;;;;14.39;100.00;101010.50;5049430;28;20204;-76
2022/07/11 05:26:34;;;;;;;5.63;5.13;;;;;;;14.41;100.00;101016.56;5051401;28;20573;-76
2022/07/11 05:29:00;;;;;;;5.73;4.90;;;;;;;14.57;100.00;101017.97;5051923;28;20283;-76
2022/07/11 05:31:27;;;;;;;6.47;4.87;;;;;;;14.61;100.00;101032.75;5052000;28;20200;-76
2022/07/11 05:33:53;;;;;;;5.03;4.53;;;;;;;14.59;100.00;101046.78;5052020;28;20667;-76
2022/07/11 05:36:20;;;;;;;5.17;4.37;;;;;;;14.43;100.00;101044.56;5051658;28;20198;-76
2022/07/11 05:38:48;;;;;;;4.43;3.80;;;;;;;14.55;100.00;101055.63;5048907;28;20220;-76
2022/07/11 05:41:14;;;;;;;4.30;3.87;;;;;;;14.49;100.00;101048.78;5051757;28;20274;-76
2022/07/11 05:43:41;;;;;;;4.80;3.80;;;;;;;14.59;99.79;101063.44;5052014;28;20259;-76
2022/07/11 05:46:07;;;;;;;4.33;3.93;;;;;;;14.47;99.75;101074.25;5049196;28;20257;-76
2022/07/11 05:48:34;;;;;;;4.07;3.60;;;;;;;14.59;99.94;101070.44;5053372;28;20235;-76
2022/07/11 05:51:00;;;;;;;5.10;4.60;;;;;;;14.71;99.35;101075.41;5057930;28;20882;-76
2022/07/11 05:53:26;;;;;;;4.50;4.13;;;;;;;14.69;99.43;101082.47;5051137;28;20197;-76
2022/07/11 05:55:54;;;;;;;5.00;4.60;;;;;;;14.65;99.21;101089.56;5051680;28;20259;-76
2022/07/11 05:58:21;;;;;;;8.37;4.07;;;;;;;14.61;99.67;101074.78;5049052;28;20279;-76
2022/07/11 06:00:47;;;;;;;4.53;4.23;;;;;;;14.45;100.00;101071.63;5054038;28;20204;-76
2022/07/11 06:03:14;;;;;;;3.80;3.50;;;;;;;14.47;99.81;101066.34;5051524;28;20200;-76
2022/07/11 06:05:40;;;;;;;4.67;3.60;;;;;;;14.44;99.13;101080.41;5051527;28;20206;-76
2022/07/11 06:10:51;;;;;;;6.63;5.33;;;;;;;14.24;100.00;101044.13;5051596;28;20204;-76
2022/07/11 06:13:19;;;;;;;7.90;5.57;;;;;;;14.19;100.00;101030.28;5051699;28;20752;-75
2022/07/11 06:15:47;;;;;;;5.83;5.37;;;;;;;14.15;100.00;101023.34;5051451;28;20614;-76
2022/07/11 06:18:13;;;;;;;6.13;5.57;;;;;;;14.20;100.00;101028.50;5051446;28;20771;-76
2022/07/11 06:20:40;;;;;;;6.90;6.30;;;;;;;14.20;100.00;101033.75;5061948;28;20211;-76
2022/07/11 06:23:07;;;;;;;5.27;4.73;;;;;;;14.18;100.00;101041.66;5072365;28;20275;-76
2022/07/11 06:25:33;;;;;;;5.67;5.13;;;;;;;14.18;100.00;101051.31;5071218;28;20730;-76
2022/07/11 06:28:00;;;;;;;5.20;4.70;;;;;;;14.30;100.00;101066.75;5071662;28;20227;-76
2022/07/11 06:30:28;;;;;;;5.63;5.13;;;;;;;14.37;100.00;101070.97;5071810;28;20300;-76
2022/07/11 06:32:55;;;;;;;5.03;4.63;;;;;;;14.57;99.80;101074.88;5071220;28;20232;-76
2022/07/11 06:35:22;;;;;;;3.83;3.53;;;;;;;14.81;98.32;101097.91;5071511;28;20234;-76
2022/07/11 06:37:48;;;;;;;4.53;3.10;;;;;;;14.95;95.28;101154.53;5071035;28;20232;-77
2022/07/11 06:40:17;;;;;;;3.63;3.30;;;;;;;15.03;94.23;101197.25;5075105;28;20211;-76
2022/07/11 06:42:43;;;;;;;3.17;2.87;;;;;;;15.21;93.14;101220.44;5075434;28;20758;-76
2022/07/11 06:45:11;;;;;;;3.27;3.00;;;;;;;15.27;92.62;101237.84;5075169;28;20204;-77
2022/07/11 06:47:39;;;;;;;2.97;2.70;;;;;;;15.32;91.15;101280.69;5075087;28;20710;-76
2022/07/11 06:50:06;;;;;;;2.53;2.33;;;;;;;15.50;90.25;101303.03;5063422;28;20662;-77
2022/07/11 06:52:32;;;;;;;4.77;2.70;;;;;;;15.39;89.37;101328.75;5073600;28;20258;-77
2022/07/11 06:54:59;;;;;;;2.83;2.30;;;;;;;15.36;88.51;101358.63;5074789;28;20214;-76
2022/07/11 06:57:25;;;;;;;1.87;1.73;;;;;;;15.58;88.58;101356.34;5075157;28;20609;-76
2022/07/11 06:59:53;;;;;;;2.13;1.90;;;;;;;15.78;88.04;101363.75;5075257;28;20205;-76
2022/07/11 07:02:19;;;;;;;2.17;1.70;;;;;;;15.99;86.70;101398.34;5075213;28;20229;-76
2022/07/11 07:04:47;;;;;;;1.40;1.10;;;;;;;16.06;84.18;101449.94;5075067;28;20233;-76
2022/07/11 07:07:14;;;;;;;1.80;1.40;;;;;;;16.19;82.16;101521.63;5075250;28;20201;-77
2022/07/11 07:09:41;;;;;;;1.97;1.00;;;;;;;16.10;80.90;101564.00;5075058;28;20304;-77
2022/07/11 07:12:07;;;;;;;0.80;0.80;;;;;;;16.24;81.88;101573.28;5074935;28;20277;-77
2022/07/11 07:14:34;;;;;;;2.97;1.10;;;;;;;16.26;77.92;101634.72;5074928;28;20263;-77
2022/07/11 07:17:00;;;;;;;0.80;0.80;;;;;;;16.51;78.75;101646.44;5074752;28;20210;-76
2022/07/11 07:19:27;;;;;;;1.13;0.93;;;;;;;16.40;78.60;101650.22;5067469;28;20703;-76
2022/07/11 07:21:55;;;;;;;0.90;0.87;;;;;;;16.45;79.65;101603.53;5067462;28;20226;-77
2022/07/11 07:24:21;;;;;;;1.63;1.10;;;;;;;16.32;79.62;101604.72;5074585;28;20213;-76
2022/07/11 07:26:48;;;;;;;1.37;1.03;;;;;;;16.44;80.06;101574.56;5074153;28;20250;-77
2022/07/11 07:29:14;;;;;;;1.87;1.07;;;;;;;16.34;79.67;101573.09;5074858;28;20229;-76
2022/07/11 07:31:41;;;;;;;2.13;1.00;;;;;;;16.28;79.82;101568.81;5071506;28;20206;-76
2022/07/11 07:34:08;;;;;;;2.40;1.13;;;;;;;16.34;78.98;101592.38;5054666;28;20206;-76
2022/07/11 07:36:34;;;;;;;1.63;1.00;;;;;;;16.28;79.99;101589.91;5052588;28;20876;-76
2022/07/11 07:39:02;;;;;;;0.93;0.93;;;;;;;16.34;81.07;101537.03;5051199;28;20221;-76
2022/07/11 07:41:29;;;;;;;2.03;1.30;;;;;;;16.54;79.87;101538.31;5054594;28;20309;-76
2022/07/11 07:43:55;;;;;;;1.23;1.10;;;;;;;16.22;79.45;101584.78;5054865;28;20214;-76
2022/07/11 07:46:22;;;;;;;2.00;1.00;;;;;;;16.02;79.97;101558.91;5054265;28;20205;-76
2022/07/11 07:48:48;;;;;;;1.53;1.10;;;;;;;16.04;81.47;101515.84;5058074;28;20222;-76
2022/07/11 07:51:15;;;;;;;2.60;1.70;;;;;;;16.02;80.82;101515.00;5065821;28;20251;-76
2022/07/11 07:53:41;;;;;;;1.83;0.97;;;;;;;16.08;80.18;101529.78;5074054;28;20213;-76
2022/07/11 07:56:09;;;;;;;1.03;0.80;;;;;;;16.17;79.63;101548.00;5074076;28;20675;-76
2022/07/11 07:58:35;;;;;;;2.40;1.00;;;;;;;16.03;79.60;101555.38;5074208;28;20232;-77
2022/07/11 08:03:46;;;;;;;2.67;1.00;;;;;;;16.00;80.38;101542.28;5074245;28;20203;-76
2022/07/11 08:06:13;;;;;;;1.00;0.90;;;;;;;16.19;79.78;101537.41;5073699;28;20574;-76
2022/07/11 08:08:39;;;;;;;1.30;1.20;;;;;;;16.26;79.55;101553.03;5074117;28;20603;-77
2022/07/11 08:11:05;;;;;;;2.43;1.03;;;;;;;16.36;79.10;101566.00;5074437;28;20278;-77
2022/07/11 08:13:33;;;;;;;1.53;1.43;;;;;;;16.41;78.65;101588.69;5074135;28;20246;-77
2022/07/11 08:16:00;;;;;;;2.43;2.23;;;;;;;16.32;78.92;101593.34;5073766;28;20204;-76
2022/07/11 08:18:27;;;;;;;2.80;1.50;;;;;;;16.32;79.31;101581.00;5067095;28;20236;-76
2022/07/11 08:20:55;;;;;;;1.87;1.47;;;;;;;16.37;78.45;101596.69;5065582;28;20205;-77
2022/07/11 08:23:22;;;;;;;1.80;1.70;;;;;;;16.17;78.59;101603.31;5073395;28;20582;-76
2022/07/11 08:25:48;;;;;;;2.00;1.40;;;;;;;16.26;78.13;101612.78;5073504;28;20263;-76
2022/07/11 08:28:15;;;;;;;2.57;1.60;;;;;;;16.39;78.29;101597.53;5073670;28;20251;-76
2022/07/11 08:30:43;;;;;;;1.50;1.40;;;;;;;16.52;78.00;101608.66;5073594;28;20229;-76
2022/07/11 08:33:09;;;;;;;1.60;1.50;;;;;;;16.45;78.36;101602.66;5074046;28;20262;-75
2022/07/11 08:35:36;;;;;;;2.00;1.80;;;;;;;16.36;77.53;101609.03;5073692;28;20256;-77
2022/07/11 08:38:02;;;;;;;2.13;1.50;;;;;;;16.13;77.57;101622.72;5073176;28;20740;-77
2022/07/11 08:40:29;;;;;;;1.80;1.33;;;;;;;16.26;78.25;101594.34;5073519;28;20208;-76
2022/07/11 08:42:58;;;;;;;1.47;1.20;;;;;;;16.39;77.97;101602.81;5073403;28;20291;-77
2022/07/11 08:45:30;;;;;;;2.10;1.70;;;;;;;16.60;77.31;101606.69;5073040;28;20236;-77
2022/07/11 08:48:00;;;;;;;2.80;1.60;;;;;;;16.57;76.47;101652.44;5070473;28;20722;-77
2022/07/11 08:50:28;;;;;;;2.17;1.53;;;;;;;16.62;75.66;101674.28;5062230;28;20253;-77
2022/07/11 08:52:55;;;;;;;1.50;1.40;;;;;;;16.65;75.90;101670.72;5073316;28;20292;-77
2022/07/11 08:55:22;;;;;;;1.47;1.30;;;;;;;16.82;75.99;101662.41;5072794;28;20291;-77
2022/07/11 08:57:49;;;;;;;1.50;1.40;;;;;;;16.93;75.19;101678.84;5072808;28;20229;-76
2022/07/11 09:00:16;;;;;;;1.40;1.27;;;;;;;17.15;74.15;101707.31;5072820;28;20208;-76
2022/07/11 09:02:44;;;;;;;2.10;1.30;;;;;;;16.93;75.21;101707.00;5071923;28;20221;-76
2022/07/11 09:05:12;;;;;;;1.00;1.00;;;;;;;17.01;75.81;101683.91;5072492;28;20581;-76
2022/07/11 09:07:44;;;;;;;2.00;1.33;;;;;;;17.03;75.44;101666.28;5073039;28;20227;-76
2022/07/11 09:10:10;;;;;;;1.07;0.87;;;;;;;17.19;75.82;101662.31;5072693;28;20217;-76
2022/07/11 09:12:37;;;;;;;2.23;1.00;;;;;;;17.14;76.53;101632.53;5073329;28;20258;-77
2022/07/11 09:15:04;;;;;;;1.20;1.10;;;;;;;17.11;76.55;101639.69;5072843;28;20671;-76
2022/07/11 09:17:31;;;;;;;1.23;1.00;;;;;;;17.34;75.32;101652.25;5072923;28;20236;-76
2022/07/11 09:19:57;;;;;;;1.13;1.03;;;;;;;17.35;74.87;101683.03;5061458;28;20296;-74
2022/07/11 09:25:21;;;;;;;2.97;1.27;;;;;;;17.13;75.39;101670.41;5072150;28;20208;-75
2022/07/11 09:27:48;;;;;;;3.47;1.13;;;;;;;17.41;75.11;101664.38;5072436;28;20313;-76
2022/07/11 09:30:35;;;;;;;3.40;1.50;;;;;;;17.63;74.52;101672.56;5072661;28;20212;-75
2022/07/11 09:33:03;;;;;;;1.17;0.80;;;;;;;17.58;72.62;101704.38;5072436;28;20769;-76
2022/07/11 09:35:32;;;;;;;1.57;1.17;;;;;;;17.18;74.65;101689.59;5051777;28;20197;-75
2022/07/11 09:38:04;;;;;;;1.90;1.00;;;;;;;17.37;74.65;101665.38;5051720;28;20226;-75
2022/07/11 09:40:30;;;;;;;1.47;1.00;;;;;;;17.20;73.11;101708.88;5051793;28;20293;-75
2022/07/11 09:42:58;;;;;;;0.73;0.73;;;;;;;17.33;72.87;101704.16;5051960;28;20628;-75
2022/07/11 09:45:26;;;;;;;1.70;0.80;;;;;;;17.38;71.51;101733.06;5051567;28;20202;-75
2022/07/11 09:47:54;;;;;;;1.00;0.60;;;;;;;17.53;72.58;101737.09;5049098;28;20827;-76
2022/07/11 09:50:22;;;;;;;1.93;0.83;;;;;;;17.53;72.18;101742.38;5053376;28;20206;-76
2022/07/11 09:53:02;;;;;;;0.70;0.70;;;;;;;17.78;71.73;101751.34;5051037;28;20268;-75
2022/07/11 09:55:29;;;;;;;3.10;0.77;;;;;;;17.66;71.83;101763.13;5051434;28;20281;-76
2022/07/11 09:57:55;;;;;;;0.60;0.60;;;;;;;17.46;71.48;101774.22;5051453;28;20702;-75
2022/07/11 10:00:22;;;;;;;0.83;0.63;;;;;;;17.56;72.35;101735.25;5051641;28;20202;-75
2022/07/11 10:02:49;;;;;;;0.50;0.50;;;;;;;17.58;72.48;101721.97;5051296;28;20225;-75
2022/07/11 10:05:16;;;;;;;1.43;0.50;;;;;;;17.59;72.62;101719.28;5051042;28;20289;-75
2022/07/11 10:07:42;;;;;;;0.90;0.60;;;;;;;17.72;72.77;101709.28;5051222;28;20217;-75
2022/07/11 10:10:11;;;;;;;0.40;0.40;;;;;;;17.80;71.88;101720.47;5051358;28;20225;-75
2022/07/11 10:12:37;;;;;;;1.70;0.40;;;;;;;17.85;72.36;101723.00;5051508;28;20201;-75
2022/07/11 10:15:06;;;;;;;0.43;0.40;;;;;;;17.97;72.31;101700.66;5051592;28;20209;-75
2022/07/11 10:17:47;;;;;;;1.27;0.50;;;;;;;18.14;71.97;101718.66;5051748;28;20226;-75
2022/07/11 10:20:20;;;;;;;0.67;0.40;;;;;;;18.06;71.42;101740.88;5055439;28;20215;-75
2022/07/11 10:22:54;;;;;;;1.33;0.52;;;;;;;18.12;71.52;101749.56;5051337;28;20452;-75
2022/07/11 10:25:29;;;;;;;1.43;0.50;;;;;;;17.88;72.03;101727.34;5050990;28;20672;-75
2022/07/11 10:28:14;;;;;;;0.80;0.40;;;;;;;18.12;71.45;101723.13;5051515;28;20774;-74
2022/07/11 10:30:45;;;;;;;0.53;0.53;;;;;;;18.08;70.74;101764.63;5031588;28;20264;-75
2022/07/11 10:33:12;;;;;;;0.50;0.50;;;;;;;17.92;70.83;101769.50;5035032;28;20238;-75
2022/07/11 10:35:43;;;;;;;0.80;0.40;;;;;;;18.15;70.93;101768.81;5050498;28;20206;-74
2022/07/11 10:38:10;;;;;;;0.80;0.50;;;;;;;18.50;70.53;101753.66;5053686;28;20439;-77
2022/07/11 10:40:47;;;;;;;0.57;0.40;;;;;;;18.49;69.63;101778.38;5053696;28;20210;-76
2022/07/11 10:43:16;;;;;;;0.80;0.50;;;;;;;18.51;69.58;101784.47;5054056;28;20231;-75
2022/07/11 10:45:59;;;;;;;0.57;0.50;;;;;;;18.81;68.79;101797.69;5052804;28;20264;-75
2022/07/11 10:48:26;;;;;;;0.40;0.40;;;;;;;18.97;68.51;101819.28;5051228;28;20304;-75
2022/07/11 10:51:12;;;;;;;0.63;0.50;;;;;;;18.72;68.35;101842.94;5050846;28;20196;-74
2022/07/11 10:53:45;;;;;;;0.40;0.40;;;;;;;18.70;68.06;101816.53;5052184;28;20647;-75
2022/07/11 10:56:38;;;;;;;0.40;0.40;;;;;;;18.70;68.58;101836.84;5054891;28;20244;-75
2022/07/11 10:59:14;;;;;;;0.67;0.40;;;;;;;18.79;69.19;101788.91;5048430;28;20224;-75
2022/07/11 11:02:01;;;;;;;1.10;0.60;;;;;;;19.17;66.78;101810.69;5050879;28;20374;-75
2022/07/11 11:04:47;;;;;;;0.57;0.57;;;;;;;19.56;66.45;101858.81;5048660;28;20220;-76
2022/07/11 11:07:37;;;;;;;0.40;0.40;;;;;;;19.64;64.98;101901.78;5049517;28;20204;-76
2022/07/11 11:10:07;;;;;;;0.70;0.40;;;;;;;19.31;66.33;101887.00;5048276;28;20210;-76
2022/07/11 11:13:19;;;;;;;1.60;0.80;;;;;;;19.31;66.57;101855.25;5053938;28;20208;-74
2022/07/11 11:15:49;;;;;;;0.60;0.40;;;;;;;19.18;66.03;101876.78;5030456;28;20257;-75
2022/07/11 11:18:34;;;;;;;0.30;0.30;;;;;;;18.93;66.23;101889.94;5050670;28;20227;-76
2022/07/11 11:21:15;;;;;;;0.23;0.23;;;;;;;18.86;66.92;101872.50;5052264;28;20201;-79
2022/07/11 11:23:44;;;;;;;0.83;0.30;;;;;;;18.61;68.52;101811.50;5053849;28;20628;-78
2022/07/11 11:26:12;;;;;;;0.30;0.30;;;;;;;18.69;69.26;101785.72;5060807;28;20214;-77
2022/07/11 11:28:57;;;;;;;1.27;0.40;;;;;;;18.82;69.66;101742.09;5055685;28;20236;-75
2022/07/11 11:31:24;;;;;;;0.80;0.40;;;;;;;19.01;68.20;101758.25;5056788;28;20750;-78
2022/07/11 11:33:50;;;;;;;1.50;0.40;;;;;;;18.92;68.64;101789.44;5054928;28;20201;-76
2022/07/11 11:36:19;;;;;;;0.43;0.43;;;;;;;18.76;68.83;101779.31;5054625;28;20207;-76